Time;durP1;ratioP1;P1;durP2;ratioP2;P2;SDS_P1;SDS_P2;PMS_P1;PMS_P2;Temp;Humidity;BMP_temperature;BMP_pressure;BME280_temperature;BME280_humidity;BME280_pressure;Samples;Min_cycle;Max_cycle;Signal;HPM_P1;HPM_P2
2024/01/16 00:01:43;;;;;;;1.52;0.20;;;;;;;-9.24;64.30;99493.84;5019565;28;20519;-72
2024/01/16 00:04:10;;;;;;;0.50;0.10;;;;;;;-9.25;64.78;99497.19;5021302;28;20698;-71
2024/01/16 00:06:40;;;;;;;0.10;0.10;;;;;;;-9.25;64.54;99506.44;5020362;28;20076;-71
2024/01/16 00:09:09;;;;;;;0.10;0.10;;;;;;;-9.26;64.55;99504.72;5021194;28;20488;-71
2024/01/16 00:11:41;;;;;;;0.20;0.10;;;;;;;-9.29;64.23;99497.00;5020727;28;20045;-71
2024/01/16 00:14:10;;;;;;;0.25;0.05;;;;;;;-9.29;64.52;99509.66;5020128;28;20136;-72
2024/01/16 00:16:43;;;;;;;0.30;0.10;;;;;;;-9.32;64.26;99501.97;5020375;28;20068;-71
2024/01/16 00:19:11;;;;;;;0.40;0.20;;;;;;;-9.33;64.22;99507.84;5019458;28;20047;-70
2024/01/16 00:21:40;;;;;;;0.77;0.20;;;;;;;-9.32;64.21;99509.56;5025563;28;20558;-69
2024/01/16 00:24:09;;;;;;;0.10;0.10;;;;;;;-9.35;64.85;99507.78;5014631;28;20056;-78
2024/01/16 00:26:35;;;;;;;0.20;0.10;;;;;;;-9.37;64.63;99510.28;5033197;28;20476;-80
2024/01/16 00:29:02;;;;;;;0.47;0.10;;;;;;;-9.37;64.44;99504.31;5028878;28;20134;-79
2024/01/16 00:31:29;;;;;;;5.53;0.10;;;;;;;-9.41;65.07;99505.91;5026871;28;20092;-79
2024/01/16 00:33:56;;;;;;;3.22;0.10;;;;;;;-9.48;64.48;99509.03;5027117;28;20088;-79
2024/01/16 00:36:23;;;;;;;0.20;0.10;;;;;;;-9.44;64.37;99500.75;5029910;28;20083;-79
2024/01/16 00:38:50;;;;;;;0.30;0.10;;;;;;;-9.45;65.08;99514.22;5029829;28;20123;-80
2024/01/16 00:41:18;;;;;;;0.40;0.17;;;;;;;-9.46;64.87;99506.56;5024373;28;20530;-78
2024/01/16 00:43:46;;;;;;;1.77;0.00;;;;;;;-9.50;64.44;99515.72;5028787;28;20449;-79
2024/01/16 00:46:13;;;;;;;2.10;0.10;;;;;;;-9.51;65.04;99523.22;5023870;28;20073;-78
2024/01/16 00:48:40;;;;;;;0.90;0.10;;;;;;;-9.53;64.96;99520.66;5031212;28;20080;-79
2024/01/16 00:51:07;;;;;;;0.32;0.10;;;;;;;-9.55;64.02;99522.28;5025408;28;20100;-79
2024/01/16 00:53:34;;;;;;;0.05;0.00;;;;;;;-9.57;64.77;99523.88;5031539;28;20081;-79
2024/01/16 00:56:01;;;;;;;0.10;0.10;;;;;;;-9.60;64.05;99524.63;5028173;28;20045;-79
2024/01/16 00:58:29;;;;;;;1.73;0.05;;;;;;;-9.65;63.95;99528.66;5026748;28;20077;-79
2024/01/16 01:00:56;;;;;;;1.33;0.10;;;;;;;-9.70;64.75;99524.22;5022921;28;20087;-79
2024/01/16 01:03:23;;;;;;;1.02;0.00;;;;;;;-9.73;64.84;99541.84;5032714;28;20076;-78
2024/01/16 01:05:50;;;;;;;0.10;0.00;;;;;;;-9.77;64.14;99534.91;5028419;28;20073;-79
2024/01/16 01:08:17;;;;;;;2.17;0.10;;;;;;;-9.77;64.73;99542.50;5026402;28;20084;-79
2024/01/16 01:10:44;;;;;;;0.43;0.10;;;;;;;-9.80;64.28;99547.44;5030907;28;20077;-79
2024/01/16 01:13:11;;;;;;;1.30;0.20;;;;;;;-9.84;63.95;99560.00;5031728;28;20458;-79
2024/01/16 01:15:40;;;;;;;1.00;0.10;;;;;;;-9.88;64.60;99558.16;5022392;28;20554;-79
2024/01/16 01:18:07;;;;;;;0.22;0.10;;;;;;;-9.90;63.88;99562.28;5030328;28;20053;-79
2024/01/16 01:20:34;;;;;;;2.72;0.10;;;;;;;-9.94;64.56;99562.94;5025574;28;20056;-79
2024/01/16 01:23:01;;;;;;;0.10;0.10;;;;;;;-9.94;64.68;99578.13;5024963;28;20171;-79
2024/01/16 01:25:28;;;;;;;1.38;0.08;;;;;;;-9.95;63.86;99570.50;5019625;28;20143;-74
2024/01/16 01:27:55;;;;;;;0.20;0.10;;;;;;;-9.99;63.97;99574.56;5016476;28;20050;-75
2024/01/16 01:30:22;;;;;;;3.88;0.17;;;;;;;-10.01;64.67;99575.31;5023361;28;20133;-74
2024/01/16 01:32:50;;;;;;;2.22;0.20;;;;;;;-10.08;64.04;99572.53;5020053;28;20138;-74
2024/01/16 01:35:19;;;;;;;0.20;0.10;;;;;;;-10.11;64.08;99566.47;5018032;28;20129;-71
2024/01/16 01:37:46;;;;;;;0.10;0.10;;;;;;;-10.12;64.35;99579.94;5022943;28;20057;-71
2024/01/16 01:40:15;;;;;;;3.72;0.10;;;;;;;-10.15;63.98;99589.94;5015780;28;20080;-71
2024/01/16 01:42:42;;;;;;;1.20;0.10;;;;;;;-10.16;64.13;99585.69;5018639;28;20478;-71
2024/01/16 01:45:10;;;;;;;0.10;0.00;;;;;;;-10.20;64.29;99589.72;5021578;28;20050;-71
2024/01/16 01:47:37;;;;;;;0.08;0.00;;;;;;;-10.24;64.08;99587.03;5015546;28;20495;-71
2024/01/16 01:50:08;;;;;;;0.10;0.10;;;;;;;-10.26;64.47;99594.53;5018460;28;20054;-71
2024/01/16 01:52:36;;;;;;;0.00;0.00;;;;;;;-10.29;64.46;99607.91;5018192;28;20053;-71
2024/01/16 01:55:05;;;;;;;0.05;0.05;;;;;;;-10.33;64.47;99616.19;5021720;28;20144;-71
2024/01/16 01:57:34;;;;;;;0.20;0.10;;;;;;;-10.35;64.11;99610.19;5019387;28;20119;-72
2024/01/16 02:00:02;;;;;;;0.85;0.00;;;;;;;-10.38;64.45;99616.78;5019304;28;20149;-71
2024/01/16 02:02:29;;;;;;;0.00;0.00;;;;;;;-10.40;64.42;99620.91;5017836;28;20075;-71
2024/01/16 02:04:57;;;;;;;0.32;0.10;;;;;;;-10.44;64.22;99624.97;5021284;28;20085;-70
2024/01/16 02:07:26;;;;;;;0.38;0.10;;;;;;;-10.47;63.81;99624.00;5017069;28;20068;-72
2024/01/16 02:09:53;;;;;;;0.00;0.00;;;;;;;-10.49;63.84;99641.59;5016933;28;20143;-71
2024/01/16 02:12:20;;;;;;;0.10;0.00;;;;;;;-10.51;64.09;99633.09;5018443;28;20139;-71
2024/01/16 02:14:47;;;;;;;0.00;0.00;;;;;;;-10.55;63.72;99648.94;5022185;28;20099;-71
2024/01/16 02:17:14;;;;;;;0.08;0.00;;;;;;;-10.57;63.89;99636.22;5015124;28;20100;-71
2024/01/16 02:19:41;;;;;;;0.35;0.00;;;;;;;-10.60;63.70;99628.50;5023324;28;20053;-72
2024/01/16 02:22:14;;;;;;;0.20;0.03;;;;;;;-10.60;63.90;99630.16;5016257;28;20069;-71
2024/01/16 02:24:43;;;;;;;0.20;0.10;;;;;;;-10.62;63.72;99621.66;5019561;28;21419;-71
2024/01/16 02:27:10;;;;;;;0.25;0.08;;;;;;;-10.65;63.49;99629.09;5016984;28;20149;-71
2024/01/16 02:29:42;;;;;;;0.32;0.08;;;;;;;-10.68;63.72;99628.97;5016707;28;20835;-71
2024/01/16 02:32:09;;;;;;;1.38;0.00;;;;;;;-10.70;64.30;99640.66;5017170;28;20053;-73
2024/01/16 02:34:36;;;;;;;0.38;0.03;;;;;;;-10.72;64.37;99625.44;5020980;28;20144;-72
2024/01/16 02:37:03;;;;;;;0.15;0.08;;;;;;;-10.74;64.32;99634.63;5020968;28;20069;-71
2024/01/16 02:39:30;;;;;;;0.60;0.00;;;;;;;-10.78;64.06;99661.44;5018462;28;20049;-71
2024/01/16 02:41:58;;;;;;;0.00;0.00;;;;;;;-10.80;64.27;99665.53;5013552;28;20107;-71
2024/01/16 02:44:26;;;;;;;0.00;0.00;;;;;;;-10.82;64.27;99669.69;5020715;28;20080;-72
2024/01/16 02:46:53;;;;;;;0.20;0.03;;;;;;;-10.85;63.99;99661.94;5011243;28;20053;-72
2024/01/16 02:49:20;;;;;;;0.00;0.00;;;;;;;-10.87;63.65;99678.72;5019153;28;20096;-71
2024/01/16 02:51:47;;;;;;;0.20;0.00;;;;;;;-10.88;63.59;99681.16;5020176;28;20515;-72
2024/01/16 02:54:14;;;;;;;0.00;0.00;;;;;;;-10.89;63.92;99676.91;5017527;28;20077;-71
2024/01/16 02:56:40;;;;;;;0.00;0.00;;;;;;;-10.92;64.24;99675.09;5019701;28;20046;-72
2024/01/16 02:59:10;;;;;;;0.40;0.00;;;;;;;-10.93;63.78;99669.97;5019246;28;20068;-71
2024/01/16 03:01:37;;;;;;;0.08;0.00;;;;;;;-10.96;63.92;99684.22;5017158;28;20046;-71
2024/01/16 03:04:04;;;;;;;0.00;0.00;;;;;;;-10.97;64.43;99699.28;5021220;28;20077;-72
2024/01/16 03:06:31;;;;;;;0.65;0.10;;;;;;;-10.98;63.54;99702.63;5015874;28;20124;-72
2024/01/16 03:08:58;;;;;;;0.20;0.00;;;;;;;-11.00;64.37;99697.47;5019019;28;20115;-72
2024/01/16 03:11:24;;;;;;;0.00;0.00;;;;;;;-11.01;63.89;99699.94;5021146;28;20070;-72
2024/01/16 03:13:52;;;;;;;0.00;0.00;;;;;;;-11.02;63.91;99698.19;5015921;28;20075;-72
2024/01/16 03:16:20;;;;;;;0.10;0.00;;;;;;;-11.04;63.92;99709.91;5013311;28;20525;-72
2024/01/16 03:18:48;;;;;;;0.00;0.00;;;;;;;-11.05;64.18;99700.59;5017301;28;20076;-72
2024/01/16 03:21:15;;;;;;;0.00;0.00;;;;;;;-11.08;63.86;99706.34;5017177;28;20057;-72
2024/01/16 03:23:42;;;;;;;0.13;0.10;;;;;;;-11.10;64.06;99717.19;5021466;28;20077;-71
2024/01/16 03:26:13;;;;;;;0.08;0.00;;;;;;;-11.11;64.25;99712.94;5019268;28;20123;-72
2024/01/16 03:28:40;;;;;;;0.00;0.00;;;;;;;-11.13;64.10;99714.50;5017287;28;20049;-71
2024/01/16 03:31:07;;;;;;;1.65;0.10;;;;;;;-11.13;64.38;99709.47;5016339;28;20157;-71
2024/01/16 03:33:41;;;;;;;0.10;0.00;;;;;;;-11.16;64.16;99714.38;5016871;28;20520;-71
2024/01/16 03:36:09;;;;;;;0.00;0.00;;;;;;;-11.19;63.83;99708.41;5018556;28;20049;-72
2024/01/16 03:38:36;;;;;;;0.52;0.10;;;;;;;-11.19;64.13;99720.13;5017063;28;20156;-72
2024/01/16 03:41:06;;;;;;;0.00;0.00;;;;;;;-11.21;64.21;99710.00;5019696;28;20441;-71
2024/01/16 03:43:33;;;;;;;0.40;0.10;;;;;;;-11.22;63.96;99720.00;5020475;28;20073;-72
2024/01/16 03:46:00;;;;;;;0.00;0.00;;;;;;;-11.22;63.90;99720.00;5026942;28;20125;-73
2024/01/16 03:48:27;;;;;;;0.38;0.10;;;;;;;-11.25;63.65;99720.72;5024474;28;20050;-73
2024/01/16 03:50:56;;;;;;;0.00;0.00;;;;;;;-11.27;63.79;99708.88;5021685;28;20564;-73
2024/01/16 03:53:23;;;;;;;0.10;0.00;;;;;;;-11.28;64.44;99715.56;5023172;28;20107;-73
2024/01/16 03:55:50;;;;;;;0.10;0.00;;;;;;;-11.28;64.26;99712.19;5021118;28;20041;-72
2024/01/16 03:58:17;;;;;;;0.00;0.00;;;;;;;-11.30;63.83;99726.38;5024657;28;20115;-72
2024/01/16 04:00:45;;;;;;;0.00;0.00;;;;;;;-11.31;63.77;99725.50;5020667;28;20556;-71
2024/01/16 04:03:13;;;;;;;0.30;0.00;;;;;;;-11.33;64.29;99729.66;5022988;28;20081;-72
2024/01/16 04:05:40;;;;;;;0.35;0.00;;;;;;;-11.34;63.56;99735.47;5020671;28;20055;-72
2024/01/16 04:08:08;;;;;;;0.00;0.00;;;;;;;-11.37;64.14;99737.84;5022620;28;20475;-71
2024/01/16 04:10:35;;;;;;;0.00;0.00;;;;;;;-11.38;64.22;99743.72;5024710;28;20512;-73
2024/01/16 04:13:02;;;;;;;0.00;0.00;;;;;;;-11.39;64.27;99733.53;5023223;28;20436;-71
2024/01/16 04:15:29;;;;;;;0.30;0.00;;;;;;;-11.40;63.77;99742.75;5020760;28;20045;-72
2024/01/16 04:17:56;;;;;;;0.00;0.00;;;;;;;-11.42;63.65;99744.34;5020197;28;20053;-71
2024/01/16 04:20:23;;;;;;;0.00;0.00;;;;;;;-11.46;64.26;99740.81;5026466;28;20053;-72
2024/01/16 04:22:50;;;;;;;0.10;0.00;;;;;;;-11.44;63.88;99743.41;5025394;28;20074;-72
2024/01/16 04:25:18;;;;;;;0.20;0.08;;;;;;;-11.45;63.73;99749.22;5022855;28;20144;-72
2024/01/16 04:27:45;;;;;;;0.00;0.00;;;;;;;-11.46;64.08;99748.38;5022446;28;20132;-70
2024/01/16 04:30:13;;;;;;;0.00;0.00;;;;;;;-11.46;63.99;99760.13;5025222;28;20051;-72
2024/01/16 04:32:40;;;;;;;0.00;0.00;;;;;;;-11.48;64.15;99756.66;5022750;28;20069;-72
2024/01/16 04:35:08;;;;;;;0.00;0.00;;;;;;;-11.49;64.28;99765.91;5025740;28;20091;-72
2024/01/16 04:37:35;;;;;;;0.05;0.05;;;;;;;-11.54;64.13;99759.75;5022434;28;20054;-72
2024/01/16 04:40:02;;;;;;;1.95;0.00;;;;;;;-11.50;64.07;99765.81;5020433;28;20085;-72
2024/01/16 04:42:30;;;;;;;0.00;0.00;;;;;;;-11.50;63.97;99765.81;5023609;28;20123;-71
2024/01/16 04:44:57;;;;;;;0.05;0.00;;;;;;;-11.50;63.86;99770.84;5015150;28;20137;-72
2024/01/16 04:47:25;;;;;;;0.00;0.00;;;;;;;-11.51;64.26;99772.50;5020052;28;20148;-71
2024/01/16 04:49:52;;;;;;;0.00;0.00;;;;;;;-11.55;64.42;99768.13;5024136;28;20132;-72
2024/01/16 04:52:19;;;;;;;0.20;0.00;;;;;;;-11.54;64.34;99769.84;5019775;28;20452;-72
2024/01/16 04:54:46;;;;;;;0.32;0.00;;;;;;;-11.53;64.17;99773.22;5020931;28;20092;-73
2024/01/16 04:57:13;;;;;;;0.10;0.00;;;;;;;-11.53;64.34;99778.28;5020021;28;20590;-73
2024/01/16 04:59:41;;;;;;;0.00;0.00;;;;;;;-11.53;64.04;99778.28;5023430;28;20619;-73
2024/01/16 05:02:08;;;;;;;0.00;0.00;;;;;;;-11.55;64.36;99765.59;5018647;28;20080;-73
2024/01/16 05:04:38;;;;;;;0.00;0.00;;;;;;;-11.55;64.45;99763.06;5021255;28;20069;-76
2024/01/16 05:07:05;;;;;;;0.00;0.00;;;;;;;-11.54;64.17;99781.59;5027057;28;20073;-76
2024/01/16 05:09:32;;;;;;;0.10;0.00;;;;;;;-11.55;64.07;99779.88;5024303;28;20088;-76
2024/01/16 05:11:59;;;;;;;0.00;0.00;;;;;;;-11.54;64.36;99784.13;5022654;28;20046;-76
2024/01/16 05:14:26;;;;;;;0.00;0.00;;;;;;;-11.57;64.17;99776.41;5020796;28;20080;-75
2024/01/16 05:16:54;;;;;;;0.00;0.00;;;;;;;-11.55;64.14;99785.78;5023434;28;20492;-76
2024/01/16 05:19:21;;;;;;;1.60;0.00;;;;;;;-11.54;64.33;99786.66;5022707;28;20130;-76
2024/01/16 05:21:48;;;;;;;0.00;0.00;;;;;;;-11.56;64.14;99778.13;5020074;28;20058;-76
2024/01/16 05:24:15;;;;;;;0.60;0.20;;;;;;;-11.56;64.24;99795.78;5024529;28;20081;-76
2024/01/16 05:26:42;;;;;;;1.98;0.03;;;;;;;-11.56;64.38;99796.66;5016872;28;20057;-76
2024/01/16 05:29:10;;;;;;;0.13;0.03;;;;;;;-11.56;64.59;99798.31;5025417;28;20132;-76
2024/01/16 05:31:41;;;;;;;0.10;0.10;;;;;;;-11.57;64.68;99796.59;4999900;28;20875;-76
2024/01/16 05:34:09;;;;;;;0.30;0.08;;;;;;;-11.59;64.04;99799.03;5039203;28;20057;-76
2024/01/16 05:36:36;;;;;;;0.00;0.00;;;;;;;-11.59;64.57;99799.03;5043192;28;20423;-75
2024/01/16 05:39:03;;;;;;;0.00;0.00;;;;;;;-11.60;64.45;99816.63;5042119;28;20087;-76
2024/01/16 05:41:34;;;;;;;0.10;0.00;;;;;;;-11.62;64.21;99828.31;5042082;28;20372;-76
2024/01/16 05:44:03;;;;;;;2.85;0.15;;;;;;;-11.60;64.39;99829.25;5045627;28;20131;-76
2024/01/16 05:46:30;;;;;;;2.20;0.00;;;;;;;-11.60;64.22;99826.72;5043247;28;20450;-76
2024/01/16 05:48:57;;;;;;;0.10;0.00;;;;;;;-11.62;64.44;99835.88;5046547;28;20068;-76
2024/01/16 05:51:26;;;;;;;0.10;0.00;;;;;;;-11.63;64.17;99846.75;5040533;28;20523;-76
2024/01/16 05:53:53;;;;;;;0.10;0.00;;;;;;;-11.65;64.74;99860.16;5042738;28;20045;-75
2024/01/16 05:56:20;;;;;;;0.08;0.08;;;;;;;-11.66;64.54;99858.44;5038695;28;20041;-75
2024/01/16 05:58:47;;;;;;;0.80;0.10;;;;;;;-11.68;64.57;99854.94;5039467;28;20052;-76
2024/01/16 06:01:14;;;;;;;2.42;0.10;;;;;;;-11.68;64.18;99865.03;5040985;28;20068;-76
2024/01/16 06:03:41;;;;;;;0.52;0.52;;;;;;;-11.81;64.35;99836.56;5041742;28;20535;-75
2024/01/16 06:06:08;;;;;;;0.20;0.15;;;;;;;-11.70;64.25;99861.59;5040183;28;20088;-70
2024/01/16 06:08:37;;;;;;;1.13;0.52;;;;;;;-11.68;63.99;99864.19;5038180;28;20077;-69
2024/01/16 06:11:04;;;;;;;0.30;0.30;;;;;;;-11.73;64.64;99856.41;5037454;28;20170;-69
2024/01/16 06:13:32;;;;;;;0.20;0.10;;;;;;;-11.72;64.28;99869.88;5040799;28;20146;-69
2024/01/16 06:15:58;;;;;;;0.30;0.08;;;;;;;-11.73;64.36;99874.06;5015200;28;20056;-80
2024/01/16 06:18:25;;;;;;;2.88;1.00;;;;;;;-11.76;64.44;99863.78;5049065;28;20079;-80
2024/01/16 06:20:52;;;;;;;0.32;0.20;;;;;;;-11.76;64.17;99873.88;5026318;28;20084;-79
2024/01/16 06:23:20;;;;;;;0.40;0.20;;;;;;;-11.77;64.31;99874.66;5025536;28;20041;-79
2024/01/16 06:25:48;;;;;;;3.67;0.10;;;;;;;-11.78;64.33;99879.66;5028364;28;20124;-79
2024/01/16 06:28:15;;;;;;;0.60;0.20;;;;;;;-11.80;64.18;99884.59;5027964;28;20077;-80
2024/01/16 06:30:42;;;;;;;0.20;0.00;;;;;;;-11.84;64.47;99874.25;5024517;28;20052;-80
2024/01/16 06:33:09;;;;;;;0.70;0.40;;;;;;;-11.82;64.21;99888.69;5028373;28;20111;-80
2024/01/16 06:35:36;;;;;;;0.20;0.20;;;;;;;-11.81;64.14;99882.88;5027155;28;20927;-77
2024/01/16 06:38:03;;;;;;;0.75;0.30;;;;;;;-11.82;64.70;99885.31;4997714;28;20084;-77
2024/01/16 06:40:30;;;;;;;0.93;0.15;;;;;;;-11.84;64.32;99885.25;5022483;28;20182;-77
2024/01/16 06:42:58;;;;;;;0.30;0.10;;;;;;;-11.89;64.23;99881.59;5023604;28;20053;-77
2024/01/16 06:45:27;;;;;;;0.10;0.10;;;;;;;-11.86;64.53;99896.91;5016731;28;20076;-76
2024/01/16 06:47:53;;;;;;;0.40;0.17;;;;;;;-11.87;64.31;99900.19;5018858;28;20054;-76
2024/01/16 06:50:20;;;;;;;0.10;0.10;;;;;;;-11.89;64.09;99904.31;4997190;28;20049;-78
2024/01/16 06:52:47;;;;;;;0.75;0.20;;;;;;;-11.89;64.29;99911.88;5023595;28;20096;-78
2024/01/16 06:55:14;;;;;;;4.78;0.20;;;;;;;-11.95;64.36;99904.84;5027810;28;20123;-79
2024/01/16 06:57:41;;;;;;;0.43;0.20;;;;;;;-11.96;64.14;99902.22;5025775;28;20073;-77
2024/01/16 07:00:11;;;;;;;11.75;8.52;;;;;;;-11.92;64.67;99920.16;5018347;28;20057;-77
2024/01/16 07:02:38;;;;;;;0.93;0.50;;;;;;;-11.94;64.33;99923.38;5024947;28;20135;-78
2024/01/16 07:05:05;;;;;;;0.20;0.15;;;;;;;-11.95;64.38;99924.16;5028901;28;20077;-77
2024/01/16 07:07:32;;;;;;;0.30;0.10;;;;;;;-11.98;64.20;99926.53;5022853;28;20092;-77
2024/01/16 07:09:59;;;;;;;0.20;0.00;;;;;;;-11.98;64.45;99929.06;5021561;28;20074;-77
2024/01/16 07:12:26;;;;;;;0.57;0.10;;;;;;;-12.02;64.40;99927.13;5025198;28;20480;-76
2024/01/16 07:14:53;;;;;;;0.30;0.10;;;;;;;-11.99;64.38;99939.91;5023877;28;20208;-75
2024/01/16 07:17:22;;;;;;;0.50;0.25;;;;;;;-12.00;64.15;99940.69;5010691;28;20119;-72
2024/01/16 07:19:49;;;;;;;0.30;0.00;;;;;;;-12.01;64.20;99951.56;5017199;28;20124;-71
2024/01/16 07:22:15;;;;;;;0.00;0.00;;;;;;;-12.02;64.51;99947.31;5016360;28;20448;-75
2024/01/16 07:24:42;;;;;;;1.15;0.50;;;;;;;-12.04;64.14;99964.91;5020639;28;20129;-71
2024/01/16 07:27:09;;;;;;;0.50;0.20;;;;;;;-12.04;64.44;99959.84;5019497;28;20137;-71
2024/01/16 07:29:36;;;;;;;0.60;0.20;;;;;;;-12.04;64.28;99964.00;5016091;28;20125;-72
2024/01/16 07:32:03;;;;;;;0.15;0.10;;;;;;;-12.05;64.33;99967.31;5021808;28;20136;-71
2024/01/16 07:34:32;;;;;;;1.23;0.10;;;;;;;-12.06;64.36;99965.59;5018510;28;20052;-75
2024/01/16 07:36:59;;;;;;;0.57;0.20;;;;;;;-12.06;64.15;99968.97;5017301;28;20084;-74
2024/01/16 07:39:25;;;;;;;0.10;0.05;;;;;;;-12.06;64.58;99965.59;5019818;28;20559;-70
2024/01/16 07:41:52;;;;;;;0.13;0.00;;;;;;;-12.07;64.43;99968.88;5017981;28;20096;-71
2024/01/16 07:44:19;;;;;;;0.22;0.10;;;;;;;-12.08;64.62;99967.16;5016430;28;20129;-73
2024/01/16 07:46:46;;;;;;;0.28;0.10;;;;;;;-12.12;64.20;99961.09;5016472;28;20467;-71
2024/01/16 07:49:13;;;;;;;0.60;0.20;;;;;;;-12.10;64.60;99969.59;5015268;28;20135;-71
2024/01/16 07:51:42;;;;;;;0.70;0.10;;;;;;;-12.15;64.22;99966.81;5019918;28;20121;-73
2024/01/16 07:54:10;;;;;;;0.68;0.20;;;;;;;-12.18;64.56;99959.09;5013349;28;20136;-72
2024/01/16 07:56:38;;;;;;;0.52;0.20;;;;;;;-12.14;64.37;99971.06;5016767;28;20062;-73
2024/01/16 07:59:05;;;;;;;3.10;0.28;;;;;;;-12.15;64.42;99961.78;5017736;28;20132;-74
2024/01/16 08:01:32;;;;;;;0.30;0.10;;;;;;;-12.14;64.90;99967.69;5016455;28;20100;-72
2024/01/16 08:03:59;;;;;;;1.88;0.20;;;;;;;-12.17;64.60;99973.44;5014275;28;20041;-70
2024/01/16 08:06:27;;;;;;;0.43;0.20;;;;;;;-12.17;64.58;99970.91;5017907;28;20088;-70
2024/01/16 08:08:56;;;;;;;0.80;0.10;;;;;;;-12.16;64.58;99979.34;5018049;28;20080;-74
2024/01/16 08:11:22;;;;;;;1.35;0.20;;;;;;;-12.17;64.46;99980.13;5016106;28;20141;-74
2024/01/16 08:13:49;;;;;;;0.13;0.08;;;;;;;-12.18;64.11;99983.44;5015433;28;20137;-76
2024/01/16 08:16:16;;;;;;;1.63;0.45;;;;;;;-12.18;64.29;99989.34;5022338;28;20053;-74
2024/01/16 08:18:43;;;;;;;1.77;0.60;;;;;;;-12.20;64.64;99995.09;5020912;28;20503;-74
2024/01/16 08:21:11;;;;;;;2.60;0.30;;;;;;;-12.20;64.49;99997.63;5020913;28;20054;-75
2024/01/16 08:23:38;;;;;;;0.50;0.17;;;;;;;-12.21;64.80;99989.19;5017187;28;20084;-74
2024/01/16 08:26:07;;;;;;;0.60;0.22;;;;;;;-12.21;64.56;99981.63;5022620;28;20081;-77
2024/01/16 08:28:34;;;;;;;0.30;0.28;;;;;;;-12.21;64.46;99991.72;5016825;28;20137;-76
2024/01/16 08:31:01;;;;;;;0.90;0.20;;;;;;;-12.23;64.52;99998.31;5017905;28;20053;-73
2024/01/16 08:33:27;;;;;;;8.02;2.10;;;;;;;-12.23;64.51;100008.41;5015905;28;20077;-72
2024/01/16 08:35:54;;;;;;;11.30;2.83;;;;;;;-12.22;64.87;100010.13;5021964;28;20139;-72
2024/01/16 08:38:21;;;;;;;1.38;0.40;;;;;;;-12.22;64.61;100014.31;5019379;28;20137;-71
2024/01/16 08:40:48;;;;;;;1.75;0.52;;;;;;;-12.22;64.36;100020.22;5016816;28;20144;-69
2024/01/16 08:43:17;;;;;;;1.00;0.20;;;;;;;-12.23;64.48;100021.00;5021807;28;20085;-71
2024/01/16 08:45:44;;;;;;;0.75;0.25;;;;;;;-12.22;64.37;100025.25;5023143;28;20042;-71
2024/01/16 08:48:12;;;;;;;0.45;0.20;;;;;;;-12.23;64.85;100022.66;5022149;28;20136;-71
2024/01/16 08:50:40;;;;;;;0.70;0.20;;;;;;;-12.23;64.65;100028.56;5017489;28;20050;-71
2024/01/16 08:53:07;;;;;;;0.45;0.10;;;;;;;-12.22;64.65;100027.78;5022281;28;20049;-72
2024/01/16 08:55:34;;;;;;;0.10;0.10;;;;;;;-12.23;64.57;100033.59;5021470;28;20052;-71
2024/01/16 08:58:01;;;;;;;2.15;0.13;;;;;;;-12.22;64.85;100037.00;5015322;28;20049;-71
2024/01/16 09:00:29;;;;;;;0.32;0.13;;;;;;;-12.21;64.42;100033.69;5017857;28;20685;-71
2024/01/16 09:02:57;;;;;;;0.90;0.20;;;;;;;-12.22;64.63;100040.38;5021383;28;20110;-72
2024/01/16 09:05:25;;;;;;;0.85;0.20;;;;;;;-12.26;64.91;100033.44;5020785;28;20069;-71
2024/01/16 09:07:52;;;;;;;0.30;0.17;;;;;;;-12.23;64.41;100046.22;5018221;28;20492;-72
2024/01/16 09:10:19;;;;;;;4.57;0.20;;;;;;;-12.22;64.63;100047.06;5021584;28;20045;-71
2024/01/16 09:12:46;;;;;;;1.92;0.20;;;;;;;-12.22;64.82;100057.16;5020556;28;20152;-70
2024/01/16 09:15:13;;;;;;;2.85;0.10;;;;;;;-12.23;64.53;100053.78;5016449;28;20069;-70
2024/01/16 09:17:42;;;;;;;0.25;0.15;;;;;;;-12.22;64.65;100059.69;5015114;28;20128;-69
2024/01/16 09:20:10;;;;;;;0.55;0.10;;;;;;;-12.25;64.51;100059.50;5018638;28;20064;-70
2024/01/16 09:22:37;;;;;;;1.10;0.28;;;;;;;-12.22;64.84;100064.72;5018325;28;20127;-70
2024/01/16 09:25:05;;;;;;;0.30;0.10;;;;;;;-12.22;64.90;100068.09;5022186;28;20412;-71
2024/01/16 09:27:32;;;;;;;3.60;0.25;;;;;;;-12.21;64.27;100063.94;5023138;28;20073;-70
2024/01/16 09:29:59;;;;;;;0.77;0.10;;;;;;;-12.20;64.54;100073.25;5019485;28;20143;-71
2024/01/16 09:32:26;;;;;;;0.57;0.10;;;;;;;-12.21;64.59;100077.44;5015497;28;20129;-70
2024/01/16 09:34:54;;;;;;;0.35;0.13;;;;;;;-12.19;64.87;100082.53;5018774;28;20136;-75
2024/01/16 09:37:21;;;;;;;2.50;0.20;;;;;;;-12.18;64.72;100075.06;5022357;28;20046;-75
2024/01/16 09:39:50;;;;;;;0.32;0.20;;;;;;;-12.17;64.49;100086.03;5024891;28;20066;-71
2024/01/16 09:42:17;;;;;;;0.80;0.32;;;;;;;-12.16;64.73;100085.22;5018598;28;20081;-71
2024/01/16 09:44:44;;;;;;;0.40;0.10;;;;;;;-12.17;64.74;100079.31;5019777;28;20551;-73
2024/01/16 09:47:12;;;;;;;6.25;0.20;;;;;;;-12.16;64.47;100081.06;5018600;28;20132;-73
2024/01/16 09:49:40;;;;;;;1.63;0.10;;;;;;;-12.12;64.56;100088.03;5022382;28;20401;-69
2024/01/16 09:52:09;;;;;;;0.65;0.10;;;;;;;-12.12;64.64;100088.03;5021328;28;20050;-73
2024/01/16 09:54:35;;;;;;;3.47;0.20;;;;;;;-12.10;64.68;100090.63;5019826;28;20057;-75
2024/01/16 09:57:07;;;;;;;1.00;0.10;;;;;;;-12.10;64.82;100090.63;5018235;28;20465;-74
2024/01/16 09:59:39;;;;;;;4.07;0.10;;;;;;;-12.07;64.68;100095.84;5020457;28;20412;-75
2024/01/16 10:02:06;;;;;;;0.82;0.20;;;;;;;-12.06;64.68;100091.69;5017424;28;20060;-73
2024/01/16 10:04:34;;;;;;;0.93;0.20;;;;;;;-12.04;64.95;100100.19;5019561;28;20936;-75
2024/01/16 10:07:03;;;;;;;0.17;0.10;;;;;;;-12.05;64.61;100095.94;5019330;28;20066;-77
2024/01/16 10:09:31;;;;;;;1.17;0.20;;;;;;;-12.07;64.58;100089.94;5018546;28;20145;-73
2024/01/16 10:12:00;;;;;;;0.75;0.03;;;;;;;-12.01;64.71;100095.31;5020632;28;20149;-73
2024/01/16 10:14:27;;;;;;;0.60;0.20;;;;;;;-12.00;64.52;100099.59;5016540;28;20133;-74
2024/01/16 10:16:58;;;;;;;0.40;0.30;;;;;;;-12.00;64.74;100092.03;5019245;28;20515;-75
2024/01/16 10:19:25;;;;;;;1.38;0.13;;;;;;;-11.98;64.83;100093.00;5019284;28;20052;-77
2024/01/16 10:21:52;;;;;;;0.95;0.20;;;;;;;-12.00;64.62;100097.06;5016153;28;20478;-76
2024/01/16 10:24:19;;;;;;;0.20;0.10;;;;;;;-11.97;64.71;100098.09;5021704;28;20578;-77
2024/01/16 10:26:59;;;;;;;1.85;0.15;;;;;;;-11.94;64.68;100103.31;5021567;28;20076;-75
2024/01/16 10:29:26;;;;;;;0.65;0.15;;;;;;;-11.92;64.78;100104.28;5017853;28;20048;-75
2024/01/16 10:31:53;;;;;;;0.60;0.20;;;;;;;-11.91;64.75;100105.16;5020095;28;20541;-74
2024/01/16 10:34:22;;;;;;;0.77;0.20;;;;;;;-11.89;64.72;100103.59;5017072;28;20107;-74
2024/01/16 10:36:51;;;;;;;0.95;0.30;;;;;;;-11.89;64.32;100101.06;5023701;28;20111;-73
2024/01/16 10:39:18;;;;;;;0.20;0.10;;;;;;;-11.90;64.62;100099.31;5018698;28;20092;-74
2024/01/16 10:41:55;;;;;;;1.10;0.20;;;;;;;-11.87;64.62;100107.03;5017854;28;20136;-74
2024/01/16 10:44:22;;;;;;;0.95;0.20;;;;;;;-11.84;64.70;100113.91;5017361;28;20045;-74
2024/01/16 10:46:49;;;;;;;0.20;0.00;;;;;;;-11.84;64.50;100114.81;5015123;28;20154;-77
2024/01/16 10:49:16;;;;;;;0.70;0.32;;;;;;;-11.82;64.64;100113.22;5016466;28;20577;-77
2024/01/16 10:51:49;;;;;;;0.20;0.10;;;;;;;-11.80;64.69;100106.63;5019248;28;20167;-77
2024/01/16 10:54:16;;;;;;;2.67;0.20;;;;;;;-11.80;64.80;100109.13;5019116;28;20054;-85
2024/01/16 10:56:47;;;;;;;0.17;0.10;;;;;;;-11.88;64.77;100093.56;5028418;28;20080;-85
2024/01/16 10:59:21;;;;;;;0.20;0.10;;;;;;;-11.76;64.93;100118.59;5032397;28;20053;-85
2024/01/16 11:01:52;;;;;;;0.85;0.10;;;;;;;-11.73;64.60;100113.75;5020447;28;20578;-85
2024/01/16 11:04:21;;;;;;;3.13;0.20;;;;;;;-11.75;64.26;100107.75;5022146;28;20079;-85
2024/01/16 11:06:48;;;;;;;0.45;0.20;;;;;;;-11.71;64.28;100102.06;5027900;28;20085;-85
2024/01/16 11:09:16;;;;;;;1.38;0.25;;;;;;;-11.70;64.62;100106.34;5026875;28;20073;-85
2024/01/16 11:11:46;;;;;;;2.72;0.20;;;;;;;-11.66;64.57;100104.84;5029833;28;20112;-85
2024/01/16 11:14:14;;;;;;;0.30;0.10;;;;;;;-11.63;64.26;100101.63;5027963;28;20475;-86
2024/01/16 11:16:43;;;;;;;6.38;0.70;;;;;;;-11.66;64.51;100095.63;5029192;28;20053;-85
2024/01/16 11:19:11;;;;;;;0.68;0.30;;;;;;;-11.62;64.61;100091.63;5026342;28;20069;-86
2024/01/16 11:21:40;;;;;;;0.22;0.10;;;;;;;-11.59;64.21;100090.91;5030759;28;20048;-87
2024/01/16 11:24:09;;;;;;;0.75;0.20;;;;;;;-11.68;64.10;100077.00;5029940;28;20088;-87
2024/01/16 11:26:41;;;;;;;1.30;0.30;;;;;;;-11.52;64.60;100093.00;5026441;28;20821;-86